createdAt,value
2022-09-04T00:02:14.141Z,100272.50
2022-09-04T00:07:24.494Z,100266.69
2022-09-04T00:12:33.327Z,100269.69
2022-09-04T00:17:44.890Z,100273.50
2022-09-04T00:22:52.614Z,100277.28
2022-09-04T00:28:23.352Z,100291.78
2022-09-04T00:34:04.249Z,100274.91
2022-09-04T00:39:13.881Z,100273.50
2022-09-04T00:44:21.704Z,100276.75
2022-09-04T00:49:51.470Z,100280.75
2022-09-04T00:55:04.906Z,100287.84
2022-09-04T01:00:16.082Z,100289.19
2022-09-04T01:05:56.531Z,100301.78
2022-09-04T01:11:23.126Z,100317.34
2022-09-04T01:16:36.083Z,100311.75
2022-09-04T01:22:02.405Z,100324.31
2022-09-04T01:27:32.890Z,100331.06
2022-09-04T01:32:59.909Z,100340.53
2022-09-04T01:38:03.634Z,100339.72
2022-09-04T01:43:11.611Z,100343.88
2022-09-04T01:48:20.548Z,100339.81
2022-09-04T01:53:26.582Z,100347.22
2022-09-04T01:58:41.726Z,100340.06
2022-09-04T02:04:21.185Z,100351.81
2022-09-04T02:09:55.963Z,100342.38
2022-09-04T02:15:31.634Z,100343.91
2022-09-04T02:20:33.905Z,100349.09
2022-09-04T02:25:45.995Z,100343.00
2022-09-04T02:31:18.471Z,100345.41
2022-09-04T02:36:29.623Z,100351.97
2022-09-04T02:41:58.285Z,100346.97
2022-09-04T02:47:34.234Z,100348.56
2022-09-04T02:53:08.287Z,100352.59
2022-09-04T02:58:50.751Z,100363.00
2022-09-04T03:04:09.091Z,100359.44
2022-09-04T03:09:17.912Z,100363.50
2022-09-04T03:14:34.447Z,100366.50
2022-09-04T03:20:00.260Z,100371.88
2022-09-04T03:25:11.406Z,100369.03
2022-09-04T03:30:14.564Z,100373.34
2022-09-04T03:35:25.856Z,100380.13
2022-09-04T03:40:42.961Z,100386.72
2022-09-04T03:45:53.334Z,100387.47
2022-09-04T03:51:10.901Z,100388.97
2022-09-04T03:56:49.870Z,100391.72
2022-09-04T04:02:06.553Z,100392.22
2022-09-04T04:07:32.986Z,100400.47
2022-09-04T04:13:12.383Z,100399.88
2022-09-04T04:18:32.629Z,100397.84
2022-09-04T04:24:07.254Z,100402.50
2022-09-04T04:29:40.903Z,100412.28
2022-09-04T04:34:54.052Z,100413.63
2022-09-04T04:40:15.277Z,100421.47
2022-09-04T04:45:49.051Z,100418.72
2022-09-04T04:51:18.755Z,100435.19
2022-09-04T04:56:46.057Z,100442.09
2022-09-04T05:02:16.798Z,100446.94
2022-09-04T05:07:42.455Z,100447.53
2022-09-04T05:13:21.742Z,100461.38
2022-09-04T05:18:34.175Z,100466.53
2022-09-04T05:23:50.861Z,100478.00
2022-09-04T05:29:01.373Z,100484.22
2022-09-04T05:34:22.326Z,100492.91
2022-09-04T05:39:50.367Z,100506.13
2022-09-04T05:44:57.963Z,100519.09
2022-09-04T05:50:21.966Z,100530.38
2022-09-04T05:55:48.177Z,100543.69
2022-09-04T06:01:13.049Z,100542.72
2022-09-04T06:06:20.103Z,100554.56
2022-09-04T06:11:36.477Z,100556.66
2022-09-04T06:17:04.693Z,100560.66
2022-09-04T06:22:24.050Z,100576.00
2022-09-04T06:27:37.823Z,100575.81
2022-09-04T06:33:03.959Z,100582.63
2022-09-04T06:38:11.311Z,100590.94
2022-09-04T06:43:29.682Z,100599.56
2022-09-04T06:48:40.435Z,100601.97
2022-09-04T06:54:14.760Z,100604.91
2022-09-04T07:00:02.526Z,100616.69
2022-09-04T07:05:24.386Z,100617.50
2022-09-04T07:10:35.303Z,100640.56
2022-09-04T07:15:48.556Z,100636.09
2022-09-04T07:21:11.410Z,100644.63
2022-09-04T07:26:13.424Z,100646.47
2022-09-04T07:31:38.396Z,100648.53
2022-09-04T07:36:57.315Z,100654.84
2022-09-04T07:42:15.097Z,100670.03
2022-09-04T07:47:31.334Z,100664.84
2022-09-04T07:53:03.701Z,100673.91
2022-09-04T07:58:44.262Z,100687.31
2022-09-04T08:04:11.662Z,100673.63
2022-09-04T08:09:37.259Z,100691.59
2022-09-04T08:14:53.253Z,100695.84
2022-09-04T08:20:19.604Z,100700.97
2022-09-04T08:25:30.166Z,100712.41
2022-09-04T08:30:48.527Z,100709.06
2022-09-04T08:36:00.644Z,100723.88
2022-09-04T08:41:11.127Z,100715.50
2022-09-04T08:47:07.569Z,100724.22
2022-09-04T08:52:33.973Z,100732.53
2022-09-04T08:58:20.183Z,100727.94
2022-09-04T09:03:50.099Z,100731.19
2022-09-04T09:09:19.446Z,100732.31
2022-09-04T09:14:39.429Z,100739.91
2022-09-04T09:19:44.072Z,100739.81
2022-09-04T09:25:22.652Z,100745.44
2022-09-04T09:30:25.117Z,100741.69
2022-09-04T09:35:57.908Z,100740.94
2022-09-04T09:41:17.935Z,100735.13
2022-09-04T09:46:22.427Z,100735.03
2022-09-04T09:51:58.977Z,100720.34
2022-09-04T09:57:33.774Z,100726.16
2022-09-04T10:03:04.143Z,100707.63
2022-09-04T10:08:44.341Z,100723.97
2022-09-04T10:14:01.158Z,100717.19
2022-09-04T10:19:24.897Z,100722.03
2022-09-04T10:24:38.440Z,100734.03
2022-09-04T10:29:53.833Z,100740.28
2022-09-04T10:35:20.300Z,100722.28
2022-09-04T10:40:43.738Z,100719.56
2022-09-04T10:45:56.152Z,100712.25
2022-09-04T10:51:22.011Z,100728.44
2022-09-04T10:56:53.253Z,100711.72
2022-09-04T11:01:57.740Z,100717.22
2022-09-04T11:07:28.759Z,100704.97
2022-09-04T11:13:09.137Z,100698.50
2022-09-04T11:18:30.745Z,100720.03
2022-09-04T11:24:08.647Z,100718.91
2022-09-04T11:29:19.784Z,100728.28
2022-09-04T11:34:39.710Z,100761.91
2022-09-04T11:39:50.443Z,100741.84
2022-09-04T11:45:33.897Z,100755.19
2022-09-04T11:50:35.651Z,100738.22
2022-09-04T11:55:49.521Z,100721.78
2022-09-04T12:00:59.448Z,100728.44
2022-09-04T12:06:16.151Z,100737.88
2022-09-04T12:11:59.297Z,100739.19
2022-09-04T12:17:15.521Z,100756.00
2022-09-04T12:22:42.903Z,100739.81
2022-09-04T12:28:24.169Z,100728.09
2022-09-04T12:33:42.781Z,100723.31
2022-09-04T12:39:01.417Z,100715.88
2022-09-04T12:44:21.799Z,100729.28
2022-09-04T12:49:48.773Z,100723.78
2022-09-04T12:55:10.004Z,100720.44
2022-09-04T13:00:15.598Z,100733.47
2022-09-04T13:05:52.691Z,100733.13
2022-09-04T13:11:20.016Z,100733.69
2022-09-04T13:16:43.477Z,100703.91
2022-09-04T13:21:56.558Z,100699.69
2022-09-04T13:27:00.683Z,100692.25
2022-09-04T13:32:10.278Z,100686.81
2022-09-04T13:37:26.931Z,100697.41
2022-09-04T13:42:47.707Z,100706.47
2022-09-04T13:48:10.532Z,100717.06
2022-09-04T13:53:52.362Z,100728.13
2022-09-04T13:59:08.560Z,100719.06
2022-09-04T14:04:16.873Z,100750.41
2022-09-04T14:09:18.649Z,100750.69
2022-09-04T14:15:03.109Z,100729.06
2022-09-04T14:20:30.099Z,100729.38
2022-09-04T14:25:37.721Z,100733.47
2022-09-04T14:38:04.475Z,100695.84
2022-09-04T14:43:33.576Z,100706.69
2022-09-04T14:48:40.987Z,100701.59
2022-09-04T14:53:49.656Z,100713.31
2022-09-04T14:59:00.118Z,100702.06
2022-09-04T15:04:12.752Z,100716.72
2022-09-04T15:09:49.950Z,100696.59
2022-09-04T15:15:03.149Z,100716.03
2022-09-04T15:20:15.245Z,100710.91
2022-09-04T15:25:18.797Z,100689.94
2022-09-04T15:30:29.857Z,100669.91
2022-09-04T15:35:33.878Z,100670.59
2022-09-04T15:41:15.162Z,100674.69
2022-09-04T15:46:17.959Z,100648.44
2022-09-04T15:51:37.143Z,100645.94
2022-09-04T15:56:57.254Z,100613.72
2022-09-04T16:02:36.380Z,100628.69
2022-09-04T16:08:06.742Z,100618.31
2022-09-04T16:13:25.497Z,100614.34
2022-09-04T16:18:46.751Z,100608.38
2022-09-04T16:23:49.719Z,100618.59
2022-09-04T16:29:17.855Z,100619.53
2022-09-04T16:34:32.854Z,100624.91
2022-09-04T16:40:21.122Z,100597.34
2022-09-04T16:45:30.116Z,100592.28
2022-09-04T16:51:39.138Z,100604.31
2022-09-04T17:03:37.997Z,100568.69
2022-09-04T17:15:58.060Z,100549.41
2022-09-04T17:23:43.061Z,100553.88
2022-09-04T17:29:08.801Z,100556.78
2022-09-04T17:36:09.328Z,100556.41
2022-09-04T17:40:51.888Z,100545.66
2022-09-04T17:44:04.605Z,100541.78
2022-09-04T17:49:20.719Z,100542.53
2022-09-04T17:54:27.154Z,100522.47
2022-09-04T17:59:46.729Z,100517.16
2022-09-04T18:04:54.382Z,100510.09
2022-09-04T18:09:59.082Z,100505.81
2022-09-04T18:15:33.428Z,100510.19
2022-09-04T18:20:47.111Z,100510.22
2022-09-04T18:26:05.418Z,100519.38
2022-09-04T18:37:10.884Z,100524.59
2022-09-04T18:37:17.022Z,100549.22
2022-09-04T18:49:15.953Z,100551.31
2022-09-04T18:50:44.115Z,100564.75
2022-09-04T18:53:56.700Z,100574.75
2022-09-04T18:59:10.351Z,100576.44
2022-09-04T19:04:51.997Z,100582.28
2022-09-04T19:10:09.331Z,100595.84
2022-09-04T19:15:53.843Z,100615.53
2022-09-04T19:20:55.518Z,100610.72
2022-09-04T19:26:07.083Z,100614.81
2022-09-04T19:31:17.599Z,100615.06
2022-09-04T19:36:32.316Z,100612.22
2022-09-04T19:45:36.221Z,100611.66
2022-09-04T19:47:27.623Z,100609.91
2022-09-04T19:53:30.343Z,100615.16
2022-09-04T19:58:27.087Z,100620.66
2022-09-04T20:03:38.354Z,100616.75
2022-09-04T20:08:45.294Z,100621.72
2022-09-04T20:14:25.694Z,100612.06
2022-09-04T20:19:39.563Z,100602.13
2022-09-04T20:25:01.530Z,100615.66
2022-09-04T20:30:13.626Z,100602.13
2022-09-04T20:35:41.413Z,100595.44
2022-09-04T20:40:51.844Z,100604.00
2022-09-04T20:48:36.317Z,100603.41
2022-09-04T20:52:58.421Z,100613.28
2022-09-04T21:01:16.384Z,100610.44
2022-09-04T21:03:37.821Z,100609.69
2022-09-04T21:08:56.996Z,100626.94
2022-09-04T21:14:11.470Z,100627.81
2022-09-04T21:19:29.719Z,100624.53
2022-09-04T21:24:38.395Z,100634.53
2022-09-04T21:29:49.022Z,100641.50
2022-09-04T21:34:56.957Z,100649.78
2022-09-04T21:40:50.983Z,100662.75
2022-09-04T21:46:18.684Z,100668.78
2022-09-04T21:51:54.821Z,100674.25
2022-09-04T22:02:27.595Z,100662.00
2022-09-04T22:02:52.858Z,100666.63
2022-09-04T22:12:18.236Z,100666.78
2022-09-04T22:13:49.755Z,100658.63
2022-09-04T22:19:30.588Z,100667.41
2022-09-04T22:24:58.748Z,100665.41
2022-09-04T22:30:09.455Z,100677.75
2022-09-04T22:35:15.531Z,100672.63
2022-09-04T22:40:23.595Z,100668.59
2022-09-04T22:45:54.647Z,100669.22
2022-09-04T22:51:14.453Z,100665.13
2022-09-04T22:56:25.570Z,100675.19
2022-09-04T23:01:43.810Z,100656.50
2022-09-04T23:12:06.429Z,100665.72
2022-09-04T23:13:58.173Z,100666.31
2022-09-04T23:20:46.896Z,100671.09
2022-09-04T23:26:42.873Z,100661.41
2022-09-04T23:29:44.609Z,100667.66
2022-09-04T23:35:15.118Z,100664.84
2022-09-04T23:40:47.121Z,100659.00
2022-09-04T23:46:14.254Z,100663.25
2022-09-04T23:51:41.080Z,100651.66
2022-09-04T23:56:46.366Z,100652.09
